METAR Data
IDs: Format: Raw Decoded Include TAF

Data at: 0455 UTC 26 Sep 2018

KMCN 260453Z AUTO 28004KT 10SM BKN047 OVC055 25/22 A3013 RMK AO2 SLP199 T02500217 403280228
KMCN 260353Z AUTO 29003KT 10SM BKN055 BKN075 24/22 A3014 RMK AO2 SLP200 T02440217
KMCN 260253Z AUTO 13005KT 10SM CLR 25/22 A3011 RMK AO2 SLP192 T02500217 53013
KMCN 260153Z AUTO 12005KT 10SM CLR 26/21 A3009 RMK AO2 SLP185 T02560211
KMCN 260053Z AUTO 08004KT 10SM CLR 26/22 A3009 RMK AO2 SLP184 T02610217
KMCN 252353Z AUTO 00000KT 10SM CLR 28/21 A3007 RMK AO2 SLP179 60000 T02780211 10328 20278 53002
KMCN 252253Z 09003KT 10SM CLR 31/21 A3007 RMK AO2 SLP178 T03060206
KMCN 252153Z 12009KT 10SM FEW045 32/20 A3007 RMK AO2 SLP176 T03170200
KMCN 252053Z 10009KT 10SM CLR 32/21 A3007 RMK AO2 SLP177 60000 T03220206 56024
KMCN 251953Z 12007KT 10SM FEW039 FEW095 31/21 A3009 RMK AO2 SLP183 T03110206
KMCN 251853Z 14006KT 10SM FEW037 BKN070 BKN085 32/22 A3011 RMK AO2 RAE03B28E39 SLP191 P0000 T03170217
KMCN 251753Z 00000KT 6SM -RA FEW036 BKN060 OVC075 29/23 A3014 RMK AO2 RAB49 SLP202 P0000 60000 T02890228 10317 20239 58013
KMCN 251653Z VRB04KT 10SM FEW029 FEW037 SCT049 31/22 A3016 RMK AO2 SLP208 T03060217
KMCN 251628Z 12007KT 10SM SCT029 BKN039 BKN048 31/22 A3017 RMK AO2 T03060217
KMCN 251553Z VRB04KT 10SM SCT019 BKN029 28/22 A3017 RMK AO2 SLP212 T02830222
KMCN 251512Z 15007KT 080V170 10SM SCT013 BKN019 BKN026 29/23 A3018 RMK AO2 T02890228
KMCN 251453Z 11005KT 10SM BKN013 OVC020 27/23 A3018 RMK AO2 SLP215 T02720228 51006
KMCN 251428Z 14005KT 10SM OVC011 26/23 A3018 RMK AO2 T02610228
KMCN 251353Z 12005KT 7SM OVC008 26/23 A3018 RMK AO2 SLP215 T02560233
KMCN 251253Z 08007KT 6SM BR OVC005 24/23 A3017 RMK AO2 SLP212 T02390228
KMCN 251153Z 06003KT 5SM BR OVC005 24/23 A3016 RMK AO2 SLP209 T02390228 10239 20228 53013
KMCN 251053Z AUTO 08005KT 10SM OVC005 23/22 A3015 RMK AO2 SLP203 T02330222
KMCN 250953Z AUTO VRB03KT 10SM OVC008 23/22 A3014 RMK AO2 SLP200 T02330222
KMCN 250943Z AUTO 00000KT 10SM BKN009 OVC019 23/22 A3014 RMK AO2 T02330222
KMCN 250928Z AUTO 00000KT 10SM SCT009 OVC017 23/22 A3013 RMK AO2 T02280217
KMCN 250853Z AUTO 11004KT 10SM OVC015 23/22 A3012 RMK AO2 SLP196 T02330222 55003
KMCN 250753Z AUTO 09004KT 10SM OVC014 23/22 A3012 RMK AO2 SLP193 T02330222 $
KMCN 250712Z AUTO 11004KT 10SM BKN014 23/22 A3012 RMK AO2 T02330217 $
KMCN 250704Z AUTO 11005KT 10SM SCT014 23/22 A3012 RMK AO2 T02280217 $
KMCN 250653Z AUTO 10004KT 10SM BKN016 23/22 A3013 RMK AO2 SLP196 T02330217 $
KMCN 250629Z AUTO 09003KT 10SM BKN017 23/22 A3013 RMK AO2 T02330217 $
KMCN 250553Z AUTO 07006KT 10SM FEW060 23/22 A3013 RMK AO2 SLP199 T02330217 10278 20233 50002
KMCN 250531Z AUTO 07006KT 10SM FEW019 BKN060 24/21 A3014 RMK AO2 T02390211
KMCN 250520Z AUTO 07005KT 10SM BKN020 OVC060 23/21 A3014 RMK AO2 T02330211
KMCN 250453Z AUTO 07005KT 10SM SCT020 23/21 A3015 RMK AO2 SLP204 T02330211 403330211
KMCN 250353Z AUTO 10005KT 10SM BKN050 25/21 A3015 RMK AO2 SLP205 T02500211
KMCN 250253Z AUTO 10008KT 10SM FEW065 26/21 A3013 RMK AO2 SLP197 T02560211 51021
KMCN 250153Z AUTO 10008KT 10SM FEW045 SCT060 26/21 A3011 RMK AO2 SLP192 T02610211
KMCN 250053Z AUTO 09006KT 10SM FEW043 27/22 A3010 RMK AO2 SLP186 T02720217
KMCN 242353Z AUTO 09007KT 10SM CLR 28/22 A3007 RMK AO2 SLP176 T02780217 10333 20278 51009
KMCN 242253Z 14006KT 10SM CLR 30/21 A3007 RMK AO2 SLP176 T03000206
KMCN 242153Z 11011KT 10SM BKN100 32/21 A3005 RMK AO2 SLP171 T03220206
KMCN 242053Z 12012KT 10SM SCT050 BKN060 32/19 A3004 RMK AO2 SLP167 T03170194 56023
KMCN 241953Z 11011KT 10SM FEW044 SCT090 32/20 A3005 RMK AO2 SLP171 T03220200
KMCN 241853Z 14010KT 10SM BKN090 32/21 A3007 RMK AO2 SLP179 T03170206
KMCN 241753Z COR 15008KT 10SM FEW036 BKN065 BKN080 30/21 A3011 RMK AO2 SLP190 T03000206 10317 20217 58012
KMCN 241710Z 13010KT 10SM FEW031 SCT070 31/21 A3012 RMK AO2 T03060206
KMCN 241703Z COR VRB06KT 10SM FEW031 FEW049 SCT070 32/21 A3012 RMK AO2 T03170211